Abu Dhabi, United Arab Emirates
Current Conditions -  °F | °C
As of 8:00 AM on Monday 26 Jan 2015 (Local Time) from OMAD Reporting Station
Clear Clear  
Wind Chill: 63°   Ceiling: Unl
Heat Index: 63°   Visibility: 6mi
Dew Point: 55°   Wind: 1mph
Humidity: 77%   Direction: NA
Pressure: 30.21"   Gusts: NA
Location:  24.48°N, 54.37°E
Report Text: OMAD 260400Z VRB01KT CAVOK 17/13 Q1023 A3022 NOSIG
Loading
Personal Weather Stations






























Interactive Weather Map New forecast layout! Learn more

10-Day Weather Forecast

Advertisements
Track Severe Weather on mobile